sensor_id;sensor_type;location;lat;lon;timestamp;temperature;humidity
6206;DHT22;3136;48.788;9.772;2023-12-29T00:00:07;8.50;1.00
6206;DHT22;3136;48.788;9.772;2023-12-29T00:02:33;8.70;1.00
6206;DHT22;3136;48.788;9.772;2023-12-29T00:04:59;8.80;99.90
6206;DHT22;3136;48.788;9.772;2023-12-29T00:07:25;9.60;1.00
6206;DHT22;3136;48.788;9.772;2023-12-29T00:09:51;8.90;1.00
6206;DHT22;3136;48.788;9.772;2023-12-29T00:12:16;8.90;1.00
6206;DHT22;3136;48.788;9.772;2023-12-29T00:14:42;10.50;1.00
6206;DHT22;3136;48.788;9.772;2023-12-29T00:17:08;10.60;1.00
6206;DHT22;3136;48.788;9.772;2023-12-29T00:19:34;10.50;1.00
6206;DHT22;3136;48.788;9.772;2023-12-29T00:22:00;9.50;1.00
6206;DHT22;3136;48.788;9.772;2023-12-29T00:24:28;10.90;1.00
6206;DHT22;3136;48.788;9.772;2023-12-29T00:26:54;10.60;99.90
6206;DHT22;3136;48.788;9.772;2023-12-29T00:29:20;9.10;99.90
6206;DHT22;3136;48.788;9.772;2023-12-29T00:31:45;9.20;99.90
6206;DHT22;3136;48.788;9.772;2023-12-29T00:34:11;9.20;99.90
6206;DHT22;3136;48.788;9.772;2023-12-29T00:36:36;9.20;99.90
6206;DHT22;3136;48.788;9.772;2023-12-29T00:39:02;9.10;99.90
6206;DHT22;3136;48.788;9.772;2023-12-29T00:41:27;9.10;99.90
6206;DHT22;3136;48.788;9.772;2023-12-29T00:43:53;10.10;99.90
6206;DHT22;3136;48.788;9.772;2023-12-29T00:46:18;9.80;99.90
6206;DHT22;3136;48.788;9.772;2023-12-29T00:48:44;9.10;99.90
6206;DHT22;3136;48.788;9.772;2023-12-29T00:51:10;9.50;99.90
6206;DHT22;3136;48.788;9.772;2023-12-29T00:53:35;9.10;99.90
6206;DHT22;3136;48.788;9.772;2023-12-29T00:56:01;9.20;99.90
6206;DHT22;3136;48.788;9.772;2023-12-29T00:58:26;9.20;1.00
6206;DHT22;3136;48.788;9.772;2023-12-29T01:00:52;9.20;1.00
6206;DHT22;3136;48.788;9.772;2023-12-29T01:03:18;9.20;1.00
6206;DHT22;3136;48.788;9.772;2023-12-29T01:05:43;9.20;1.00
6206;DHT22;3136;48.788;9.772;2023-12-29T01:08:09;9.20;1.00
6206;DHT22;3136;48.788;9.772;2023-12-29T01:10:35;9.10;1.00
6206;DHT22;3136;48.788;9.772;2023-12-29T01:13:00;9.10;15.70
6206;DHT22;3136;48.788;9.772;2023-12-29T01:15:26;9.10;50.00
6206;DHT22;3136;48.788;9.772;2023-12-29T01:17:51;9.10;99.90
6206;DHT22;3136;48.788;9.772;2023-12-29T01:20:17;9.10;99.90
6206;DHT22;3136;48.788;9.772;2023-12-29T01:22:42;9.00;99.90
6206;DHT22;3136;48.788;9.772;2023-12-29T01:25:08;9.00;99.90
6206;DHT22;3136;48.788;9.772;2023-12-29T01:27:34;9.10;99.90
6206;DHT22;3136;48.788;9.772;2023-12-29T01:29:59;9.10;99.90
6206;DHT22;3136;48.788;9.772;2023-12-29T01:32:25;9.10;1.00
6206;DHT22;3136;48.788;9.772;2023-12-29T01:34:52;9.20;1.00
6206;DHT22;3136;48.788;9.772;2023-12-29T01:37:17;9.20;1.00
6206;DHT22;3136;48.788;9.772;2023-12-29T01:39:43;9.20;1.00
6206;DHT22;3136;48.788;9.772;2023-12-29T01:42:09;9.30;1.00
6206;DHT22;3136;48.788;9.772;2023-12-29T01:44:36;9.30;1.00
6206;DHT22;3136;48.788;9.772;2023-12-29T01:47:02;9.40;99.90
6206;DHT22;3136;48.788;9.772;2023-12-29T01:49:31;9.40;99.90
6206;DHT22;3136;48.788;9.772;2023-12-29T01:51:58;9.40;99.90
6206;DHT22;3136;48.788;9.772;2023-12-29T01:54:27;9.40;99.90
6206;DHT22;3136;48.788;9.772;2023-12-29T01:56:57;9.30;99.90
6206;DHT22;3136;48.788;9.772;2023-12-29T01:59:25;9.30;99.90
6206;DHT22;3136;48.788;9.772;2023-12-29T02:01:51;9.30;99.90
6206;DHT22;3136;48.788;9.772;2023-12-29T02:04:19;9.30;99.90
6206;DHT22;3136;48.788;9.772;2023-12-29T02:06:44;9.30;99.90
6206;DHT22;3136;48.788;9.772;2023-12-29T02:09:11;9.30;99.90
6206;DHT22;3136;48.788;9.772;2023-12-29T02:11:38;9.40;88.20
6206;DHT22;3136;48.788;9.772;2023-12-29T02:14:04;9.50;1.00
6206;DHT22;3136;48.788;9.772;2023-12-29T02:16:45;9.60;1.00
6206;DHT22;3136;48.788;9.772;2023-12-29T02:21:49;9.70;1.00
6206;DHT22;3136;48.788;9.772;2023-12-29T02:24:14;9.80;1.00
6206;DHT22;3136;48.788;9.772;2023-12-29T02:26:44;9.80;1.00
6206;DHT22;3136;48.788;9.772;2023-12-29T02:29:12;9.80;1.00
6206;DHT22;3136;48.788;9.772;2023-12-29T02:31:43;9.80;1.00
6206;DHT22;3136;48.788;9.772;2023-12-29T02:34:10;9.80;1.00
6206;DHT22;3136;48.788;9.772;2023-12-29T02:36:38;9.80;1.00
6206;DHT22;3136;48.788;9.772;2023-12-29T02:39:09;9.70;1.00
6206;DHT22;3136;48.788;9.772;2023-12-29T02:41:36;9.70;1.00
6206;DHT22;3136;48.788;9.772;2023-12-29T02:44:02;9.70;1.00
6206;DHT22;3136;48.788;9.772;2023-12-29T02:46:28;9.80;1.00
6206;DHT22;3136;48.788;9.772;2023-12-29T02:48:53;9.80;1.00
6206;DHT22;3136;48.788;9.772;2023-12-29T02:51:19;9.80;1.00
6206;DHT22;3136;48.788;9.772;2023-12-29T02:53:44;9.80;1.00
6206;DHT22;3136;48.788;9.772;2023-12-29T02:56:10;9.90;1.00
6206;DHT22;3136;48.788;9.772;2023-12-29T02:58:35;9.80;1.00
6206;DHT22;3136;48.788;9.772;2023-12-29T03:01:01;9.80;1.00
6206;DHT22;3136;48.788;9.772;2023-12-29T03:03:26;9.80;1.00
6206;DHT22;3136;48.788;9.772;2023-12-29T03:05:52;9.80;1.00
6206;DHT22;3136;48.788;9.772;2023-12-29T03:08:17;9.80;1.00
6206;DHT22;3136;48.788;9.772;2023-12-29T03:10:43;9.80;1.00
6206;DHT22;3136;48.788;9.772;2023-12-29T03:13:08;9.80;1.00
6206;DHT22;3136;48.788;9.772;2023-12-29T03:15:34;9.70;1.00
6206;DHT22;3136;48.788;9.772;2023-12-29T03:17:59;9.70;1.00
6206;DHT22;3136;48.788;9.772;2023-12-29T03:20:25;9.70;1.00
6206;DHT22;3136;48.788;9.772;2023-12-29T03:22:50;9.60;1.00
6206;DHT22;3136;48.788;9.772;2023-12-29T03:25:16;9.60;1.00
6206;DHT22;3136;48.788;9.772;2023-12-29T03:27:41;9.60;1.00
6206;DHT22;3136;48.788;9.772;2023-12-29T03:30:07;9.60;1.00
6206;DHT22;3136;48.788;9.772;2023-12-29T03:32:33;9.60;1.00
6206;DHT22;3136;48.788;9.772;2023-12-29T03:34:59;9.60;93.20
6206;DHT22;3136;48.788;9.772;2023-12-29T03:37:24;9.60;2.40
6206;DHT22;3136;48.788;9.772;2023-12-29T03:39:50;9.70;1.00
6206;DHT22;3136;48.788;9.772;2023-12-29T03:42:15;9.70;78.30
6206;DHT22;3136;48.788;9.772;2023-12-29T03:44:41;9.70;99.90
6206;DHT22;3136;48.788;9.772;2023-12-29T03:47:06;9.70;26.40
6206;DHT22;3136;48.788;9.772;2023-12-29T03:49:32;9.70;16.80
6206;DHT22;3136;48.788;9.772;2023-12-29T03:51:59;9.70;48.60
6206;DHT22;3136;48.788;9.772;2023-12-29T03:54:25;9.80;92.00
6206;DHT22;3136;48.788;9.772;2023-12-29T03:56:50;9.80;93.60
6206;DHT22;3136;48.788;9.772;2023-12-29T03:59:16;9.70;91.70
6206;DHT22;3136;48.788;9.772;2023-12-29T04:01:41;9.70;98.30
6206;DHT22;3136;48.788;9.772;2023-12-29T04:04:07;9.80;10.00
6206;DHT22;3136;48.788;9.772;2023-12-29T04:06:32;9.80;82.70
6206;DHT22;3136;48.788;9.772;2023-12-29T04:08:58;9.80;35.10
6206;DHT22;3136;48.788;9.772;2023-12-29T04:11:23;9.80;96.00
6206;DHT22;3136;48.788;9.772;2023-12-29T04:13:49;9.80;65.30
6206;DHT22;3136;48.788;9.772;2023-12-29T04:16:14;9.80;98.50
6206;DHT22;3136;48.788;9.772;2023-12-29T04:18:40;9.80;33.40
6206;DHT22;3136;48.788;9.772;2023-12-29T04:21:06;9.70;99.90
6206;DHT22;3136;48.788;9.772;2023-12-29T04:23:34;9.70;99.90
6206;DHT22;3136;48.788;9.772;2023-12-29T04:25:59;9.60;99.90
6206;DHT22;3136;48.788;9.772;2023-12-29T04:28:25;9.60;99.90
6206;DHT22;3136;48.788;9.772;2023-12-29T04:30:51;9.60;99.90
6206;DHT22;3136;48.788;9.772;2023-12-29T04:33:16;9.60;99.90
6206;DHT22;3136;48.788;9.772;2023-12-29T04:35:42;9.70;99.90
6206;DHT22;3136;48.788;9.772;2023-12-29T04:38:07;9.80;99.90
6206;DHT22;3136;48.788;9.772;2023-12-29T04:40:33;9.80;99.90
6206;DHT22;3136;48.788;9.772;2023-12-29T04:42:58;9.80;99.90
6206;DHT22;3136;48.788;9.772;2023-12-29T04:45:24;9.80;99.90
6206;DHT22;3136;48.788;9.772;2023-12-29T04:47:49;9.80;99.90
6206;DHT22;3136;48.788;9.772;2023-12-29T04:50:15;9.80;99.90
6206;DHT22;3136;48.788;9.772;2023-12-29T04:52:40;9.80;99.90
6206;DHT22;3136;48.788;9.772;2023-12-29T04:55:06;9.70;99.90
6206;DHT22;3136;48.788;9.772;2023-12-29T04:57:32;9.70;99.90
6206;DHT22;3136;48.788;9.772;2023-12-29T04:59:57;9.70;99.90
6206;DHT22;3136;48.788;9.772;2023-12-29T05:02:23;9.80;99.90
6206;DHT22;3136;48.788;9.772;2023-12-29T05:04:48;9.80;99.90
6206;DHT22;3136;48.788;9.772;2023-12-29T05:07:14;9.70;99.90
6206;DHT22;3136;48.788;9.772;2023-12-29T05:09:39;9.70;99.90
6206;DHT22;3136;48.788;9.772;2023-12-29T05:12:05;9.70;99.90
6206;DHT22;3136;48.788;9.772;2023-12-29T05:14:31;9.70;99.90
6206;DHT22;3136;48.788;9.772;2023-12-29T05:16:56;9.70;1.00
6206;DHT22;3136;48.788;9.772;2023-12-29T05:19:22;9.70;1.00
6206;DHT22;3136;48.788;9.772;2023-12-29T05:21:47;9.70;1.00
6206;DHT22;3136;48.788;9.772;2023-12-29T05:24:16;9.70;1.00
6206;DHT22;3136;48.788;9.772;2023-12-29T05:26:41;9.70;1.00
6206;DHT22;3136;48.788;9.772;2023-12-29T05:29:07;9.80;1.00
6206;DHT22;3136;48.788;9.772;2023-12-29T05:31:33;9.80;99.90
6206;DHT22;3136;48.788;9.772;2023-12-29T05:33:58;9.70;1.00
6206;DHT22;3136;48.788;9.772;2023-12-29T05:36:24;9.70;1.00
6206;DHT22;3136;48.788;9.772;2023-12-29T05:38:49;9.60;1.00
6206;DHT22;3136;48.788;9.772;2023-12-29T05:41:15;9.50;1.00
6206;DHT22;3136;48.788;9.772;2023-12-29T05:43:41;9.60;1.00
6206;DHT22;3136;48.788;9.772;2023-12-29T05:46:10;9.50;1.00
6206;DHT22;3136;48.788;9.772;2023-12-29T05:48:37;9.50;1.00
6206;DHT22;3136;48.788;9.772;2023-12-29T05:51:09;9.50;1.00
6206;DHT22;3136;48.788;9.772;2023-12-29T05:53:35;9.50;1.00
6206;DHT22;3136;48.788;9.772;2023-12-29T05:56:01;9.70;1.00
6206;DHT22;3136;48.788;9.772;2023-12-29T05:58:26;9.60;1.00
6206;DHT22;3136;48.788;9.772;2023-12-29T06:00:54;9.50;1.00
6206;DHT22;3136;48.788;9.772;2023-12-29T06:03:19;9.50;1.00
6206;DHT22;3136;48.788;9.772;2023-12-29T06:05:45;9.50;78.10
6206;DHT22;3136;48.788;9.772;2023-12-29T06:08:10;9.50;99.90
6206;DHT22;3136;48.788;9.772;2023-12-29T06:10:36;9.40;99.90
6206;DHT22;3136;48.788;9.772;2023-12-29T06:13:02;9.40;99.90
6206;DHT22;3136;48.788;9.772;2023-12-29T06:15:28;9.30;99.90
6206;DHT22;3136;48.788;9.772;2023-12-29T06:17:54;9.30;1.00
6206;DHT22;3136;48.788;9.772;2023-12-29T06:20:20;9.30;1.00
6206;DHT22;3136;48.788;9.772;2023-12-29T06:22:46;9.20;1.00
6206;DHT22;3136;48.788;9.772;2023-12-29T06:25:12;9.30;1.00
6206;DHT22;3136;48.788;9.772;2023-12-29T06:27:39;9.30;1.00
6206;DHT22;3136;48.788;9.772;2023-12-29T06:30:06;9.20;1.00
6206;DHT22;3136;48.788;9.772;2023-12-29T06:32:32;9.20;1.00
6206;DHT22;3136;48.788;9.772;2023-12-29T06:34:57;9.40;1.00
6206;DHT22;3136;48.788;9.772;2023-12-29T06:37:23;9.10;1.00
6206;DHT22;3136;48.788;9.772;2023-12-29T06:39:49;9.00;1.00
6206;DHT22;3136;48.788;9.772;2023-12-29T06:42:14;9.10;99.90
6206;DHT22;3136;48.788;9.772;2023-12-29T06:44:40;9.20;99.90
6206;DHT22;3136;48.788;9.772;2023-12-29T06:47:05;9.10;99.90
6206;DHT22;3136;48.788;9.772;2023-12-29T06:49:34;9.10;99.90
6206;DHT22;3136;48.788;9.772;2023-12-29T06:51:59;9.10;99.90
6206;DHT22;3136;48.788;9.772;2023-12-29T06:54:25;9.10;99.90
6206;DHT22;3136;48.788;9.772;2023-12-29T06:56:50;9.00;99.90
6206;DHT22;3136;48.788;9.772;2023-12-29T06:59:16;9.00;99.90
6206;DHT22;3136;48.788;9.772;2023-12-29T07:01:44;8.90;99.90
6206;DHT22;3136;48.788;9.772;2023-12-29T07:04:09;9.00;1.00
6206;DHT22;3136;48.788;9.772;2023-12-29T07:06:36;9.20;1.00
6206;DHT22;3136;48.788;9.772;2023-12-29T07:09:02;9.10;99.90
6206;DHT22;3136;48.788;9.772;2023-12-29T07:11:28;9.20;99.90
6206;DHT22;3136;48.788;9.772;2023-12-29T07:13:54;9.30;99.90
6206;DHT22;3136;48.788;9.772;2023-12-29T07:16:20;9.40;1.00
6206;DHT22;3136;48.788;9.772;2023-12-29T07:18:46;9.30;1.00
6206;DHT22;3136;48.788;9.772;2023-12-29T07:21:12;9.30;1.00
6206;DHT22;3136;48.788;9.772;2023-12-29T07:23:38;9.30;99.90
6206;DHT22;3136;48.788;9.772;2023-12-29T07:26:04;9.20;99.90
6206;DHT22;3136;48.788;9.772;2023-12-29T07:28:31;9.20;1.00
6206;DHT22;3136;48.788;9.772;2023-12-29T07:30:57;9.20;1.00
6206;DHT22;3136;48.788;9.772;2023-12-29T07:33:23;9.20;1.00
6206;DHT22;3136;48.788;9.772;2023-12-29T07:35:49;9.20;1.00
6206;DHT22;3136;48.788;9.772;2023-12-29T07:38:15;9.20;1.00
6206;DHT22;3136;48.788;9.772;2023-12-29T07:40:41;9.30;1.00
6206;DHT22;3136;48.788;9.772;2023-12-29T07:43:07;9.30;1.00
6206;DHT22;3136;48.788;9.772;2023-12-29T07:45:32;9.30;99.90
6206;DHT22;3136;48.788;9.772;2023-12-29T07:47:58;9.30;99.90
6206;DHT22;3136;48.788;9.772;2023-12-29T07:50:24;9.50;1.00
6206;DHT22;3136;48.788;9.772;2023-12-29T07:52:49;9.50;1.00
6206;DHT22;3136;48.788;9.772;2023-12-29T07:55:15;9.60;1.00
6206;DHT22;3136;48.788;9.772;2023-12-29T07:57:42;9.60;1.00
6206;DHT22;3136;48.788;9.772;2023-12-29T08:00:09;9.50;1.00
6206;DHT22;3136;48.788;9.772;2023-12-29T08:02:34;9.50;1.00
6206;DHT22;3136;48.788;9.772;2023-12-29T08:05:01;9.40;1.00
6206;DHT22;3136;48.788;9.772;2023-12-29T08:07:27;9.50;99.90
6206;DHT22;3136;48.788;9.772;2023-12-29T08:09:53;9.50;1.60
6206;DHT22;3136;48.788;9.772;2023-12-29T08:12:18;9.60;1.00
6206;DHT22;3136;48.788;9.772;2023-12-29T08:14:44;9.70;99.90
6206;DHT22;3136;48.788;9.772;2023-12-29T08:17:10;9.70;99.90
6206;DHT22;3136;48.788;9.772;2023-12-29T08:19:35;9.80;99.90
6206;DHT22;3136;48.788;9.772;2023-12-29T08:22:02;9.80;99.90
6206;DHT22;3136;48.788;9.772;2023-12-29T08:24:27;9.90;99.90
6206;DHT22;3136;48.788;9.772;2023-12-29T08:26:53;10.00;99.90
6206;DHT22;3136;48.788;9.772;2023-12-29T08:29:18;10.00;1.00
6206;DHT22;3136;48.788;9.772;2023-12-29T08:31:45;10.10;1.00
6206;DHT22;3136;48.788;9.772;2023-12-29T08:34:11;10.10;1.00
6206;DHT22;3136;48.788;9.772;2023-12-29T08:36:36;10.10;1.00
6206;DHT22;3136;48.788;9.772;2023-12-29T08:39:02;10.10;1.00
6206;DHT22;3136;48.788;9.772;2023-12-29T08:41:28;10.20;1.00
6206;DHT22;3136;48.788;9.772;2023-12-29T08:43:53;10.20;1.00
6206;DHT22;3136;48.788;9.772;2023-12-29T08:46:19;10.30;1.00
6206;DHT22;3136;48.788;9.772;2023-12-29T08:48:45;10.30;1.00
6206;DHT22;3136;48.788;9.772;2023-12-29T08:51:11;10.30;1.00
6206;DHT22;3136;48.788;9.772;2023-12-29T08:53:36;11.20;1.00
6206;DHT22;3136;48.788;9.772;2023-12-29T08:56:02;10.50;1.00
6206;DHT22;3136;48.788;9.772;2023-12-29T08:58:29;10.60;99.90
6206;DHT22;3136;48.788;9.772;2023-12-29T09:00:55;10.60;99.90
6206;DHT22;3136;48.788;9.772;2023-12-29T09:03:20;10.70;99.90
6206;DHT22;3136;48.788;9.772;2023-12-29T09:05:46;10.70;1.00
6206;DHT22;3136;48.788;9.772;2023-12-29T09:08:12;10.80;1.00
6206;DHT22;3136;48.788;9.772;2023-12-29T09:10:37;10.80;1.00
6206;DHT22;3136;48.788;9.772;2023-12-29T09:13:04;11.00;1.00
6206;DHT22;3136;48.788;9.772;2023-12-29T09:15:29;11.00;1.00
6206;DHT22;3136;48.788;9.772;2023-12-29T09:17:55;11.00;1.00
6206;DHT22;3136;48.788;9.772;2023-12-29T09:20:20;11.00;1.00
6206;DHT22;3136;48.788;9.772;2023-12-29T09:22:46;11.00;1.00
6206;DHT22;3136;48.788;9.772;2023-12-29T09:25:11;10.90;1.00
6206;DHT22;3136;48.788;9.772;2023-12-29T09:27:37;10.90;1.00
6206;DHT22;3136;48.788;9.772;2023-12-29T09:30:04;10.80;1.00
6206;DHT22;3136;48.788;9.772;2023-12-29T09:32:30;10.80;1.00
6206;DHT22;3136;48.788;9.772;2023-12-29T09:34:55;10.80;1.00
6206;DHT22;3136;48.788;9.772;2023-12-29T09:37:22;10.80;1.00
6206;DHT22;3136;48.788;9.772;2023-12-29T09:39:47;10.90;1.00
6206;DHT22;3136;48.788;9.772;2023-12-29T09:42:20;10.90;1.00
6206;DHT22;3136;48.788;9.772;2023-12-29T09:44:50;10.90;1.00
6206;DHT22;3136;48.788;9.772;2023-12-29T09:47:22;10.90;1.00
6206;DHT22;3136;48.788;9.772;2023-12-29T09:49:49;11.00;1.00
6206;DHT22;3136;48.788;9.772;2023-12-29T09:52:16;10.90;1.00
6206;DHT22;3136;48.788;9.772;2023-12-29T09:54:42;10.90;1.00
6206;DHT22;3136;48.788;9.772;2023-12-29T09:57:08;10.90;1.00
6206;DHT22;3136;48.788;9.772;2023-12-29T09:59:38;11.00;1.00
6206;DHT22;3136;48.788;9.772;2023-12-29T10:02:13;11.00;1.00
6206;DHT22;3136;48.788;9.772;2023-12-29T10:04:39;11.10;1.00
6206;DHT22;3136;48.788;9.772;2023-12-29T10:07:06;11.00;1.00
6206;DHT22;3136;48.788;9.772;2023-12-29T10:09:33;11.00;1.00
6206;DHT22;3136;48.788;9.772;2023-12-29T10:12:01;11.00;1.00
6206;DHT22;3136;48.788;9.772;2023-12-29T10:14:37;11.00;1.00
6206;DHT22;3136;48.788;9.772;2023-12-29T10:17:12;11.00;1.00
6206;DHT22;3136;48.788;9.772;2023-12-29T10:19:43;11.00;1.00
6206;DHT22;3136;48.788;9.772;2023-12-29T10:22:13;11.10;1.00
6206;DHT22;3136;48.788;9.772;2023-12-29T10:24:41;11.20;1.00
6206;DHT22;3136;48.788;9.772;2023-12-29T10:27:09;11.30;1.00
6206;DHT22;3136;48.788;9.772;2023-12-29T10:29:34;11.40;1.00
6206;DHT22;3136;48.788;9.772;2023-12-29T10:32:00;11.40;1.00
6206;DHT22;3136;48.788;9.772;2023-12-29T10:34:26;11.40;1.00
6206;DHT22;3136;48.788;9.772;2023-12-29T10:36:58;11.40;1.00
6206;DHT22;3136;48.788;9.772;2023-12-29T10:39:25;11.50;1.00
6206;DHT22;3136;48.788;9.772;2023-12-29T10:42:05;11.50;1.00
6206;DHT22;3136;48.788;9.772;2023-12-29T10:44:33;11.40;1.00
6206;DHT22;3136;48.788;9.772;2023-12-29T10:47:10;11.50;1.00
6206;DHT22;3136;48.788;9.772;2023-12-29T10:49:36;11.50;1.00
6206;DHT22;3136;48.788;9.772;2023-12-29T10:52:15;11.50;1.00
6206;DHT22;3136;48.788;9.772;2023-12-29T10:54:44;11.60;1.00
6206;DHT22;3136;48.788;9.772;2023-12-29T10:57:11;11.60;1.00
6206;DHT22;3136;48.788;9.772;2023-12-29T10:59:37;11.70;1.00
6206;DHT22;3136;48.788;9.772;2023-12-29T11:02:03;11.80;1.00
6206;DHT22;3136;48.788;9.772;2023-12-29T11:04:29;11.80;1.00
6206;DHT22;3136;48.788;9.772;2023-12-29T11:06:54;11.90;99.90
6206;DHT22;3136;48.788;9.772;2023-12-29T11:09:33;12.00;99.90
6206;DHT22;3136;48.788;9.772;2023-12-29T11:12:04;12.40;99.90
6206;DHT22;3136;48.788;9.772;2023-12-29T11:14:32;12.80;99.90
6206;DHT22;3136;48.788;9.772;2023-12-29T11:16:59;13.20;99.90
6206;DHT22;3136;48.788;9.772;2023-12-29T11:19:28;13.30;99.90
6206;DHT22;3136;48.788;9.772;2023-12-29T11:21:57;13.40;99.90
6206;DHT22;3136;48.788;9.772;2023-12-29T11:24:23;13.50;99.90
6206;DHT22;3136;48.788;9.772;2023-12-29T11:26:50;13.70;99.90
6206;DHT22;3136;48.788;9.772;2023-12-29T11:29:16;13.80;99.90
6206;DHT22;3136;48.788;9.772;2023-12-29T11:31:44;13.70;99.90
6206;DHT22;3136;48.788;9.772;2023-12-29T11:34:34;13.50;99.90
6206;DHT22;3136;48.788;9.772;2023-12-29T11:39:54;13.10;99.90
6206;DHT22;3136;48.788;9.772;2023-12-29T11:42:31;13.00;99.90
6206;DHT22;3136;48.788;9.772;2023-12-29T11:44:59;13.10;99.90
6206;DHT22;3136;48.788;9.772;2023-12-29T11:47:43;13.20;99.90
6206;DHT22;3136;48.788;9.772;2023-12-29T11:50:09;13.30;99.90
6206;DHT22;3136;48.788;9.772;2023-12-29T11:52:39;13.30;99.90
6206;DHT22;3136;48.788;9.772;2023-12-29T11:55:12;13.20;99.90
6206;DHT22;3136;48.788;9.772;2023-12-29T11:57:39;13.10;99.90
6206;DHT22;3136;48.788;9.772;2023-12-29T12:00:06;13.00;99.90
6206;DHT22;3136;48.788;9.772;2023-12-29T12:02:32;12.90;99.90
6206;DHT22;3136;48.788;9.772;2023-12-29T12:04:58;12.80;99.90
6206;DHT22;3136;48.788;9.772;2023-12-29T12:09:49;12.80;99.90
6206;DHT22;3136;48.788;9.772;2023-12-29T12:12:41;12.60;99.90
6206;DHT22;3136;48.788;9.772;2023-12-29T12:17:55;12.20;99.90
6206;DHT22;3136;48.788;9.772;2023-12-29T12:20:21;12.60;99.90
6206;DHT22;3136;48.788;9.772;2023-12-29T12:22:50;12.10;99.90
6206;DHT22;3136;48.788;9.772;2023-12-29T12:25:22;12.00;99.90
6206;DHT22;3136;48.788;9.772;2023-12-29T12:27:49;12.90;99.90
6206;DHT22;3136;48.788;9.772;2023-12-29T12:30:18;12.00;99.90
6206;DHT22;3136;48.788;9.772;2023-12-29T12:32:44;11.90;99.90
6206;DHT22;3136;48.788;9.772;2023-12-29T12:35:16;11.90;99.90
6206;DHT22;3136;48.788;9.772;2023-12-29T12:37:41;11.90;99.90
6206;DHT22;3136;48.788;9.772;2023-12-29T12:40:08;12.00;99.90
6206;DHT22;3136;48.788;9.772;2023-12-29T12:42:40;12.10;99.90
6206;DHT22;3136;48.788;9.772;2023-12-29T12:45:11;12.20;99.90
6206;DHT22;3136;48.788;9.772;2023-12-29T12:47:45;12.50;99.90
6206;DHT22;3136;48.788;9.772;2023-12-29T12:50:16;12.90;99.90
6206;DHT22;3136;48.788;9.772;2023-12-29T12:52:41;13.30;99.90
6206;DHT22;3136;48.788;9.772;2023-12-29T12:55:08;13.50;99.90
6206;DHT22;3136;48.788;9.772;2023-12-29T12:57:35;13.40;99.90
6206;DHT22;3136;48.788;9.772;2023-12-29T13:00:02;13.40;99.90
6206;DHT22;3136;48.788;9.772;2023-12-29T13:02:30;13.40;99.90
6206;DHT22;3136;48.788;9.772;2023-12-29T13:04:57;13.60;99.90
6206;DHT22;3136;48.788;9.772;2023-12-29T13:07:23;14.00;99.90
6206;DHT22;3136;48.788;9.772;2023-12-29T13:09:50;14.10;99.90
6206;DHT22;3136;48.788;9.772;2023-12-29T13:12:17;14.00;99.90
6206;DHT22;3136;48.788;9.772;2023-12-29T13:14:43;14.00;99.90
6206;DHT22;3136;48.788;9.772;2023-12-29T13:17:11;14.00;99.90
6206;DHT22;3136;48.788;9.772;2023-12-29T13:19:37;13.90;99.90
6206;DHT22;3136;48.788;9.772;2023-12-29T13:22:12;13.70;99.90
6206;DHT22;3136;48.788;9.772;2023-12-29T13:24:44;13.50;99.90
6206;DHT22;3136;48.788;9.772;2023-12-29T13:27:11;13.30;99.90
6206;DHT22;3136;48.788;9.772;2023-12-29T13:29:37;13.10;99.90
6206;DHT22;3136;48.788;9.772;2023-12-29T13:32:20;12.90;99.90
6206;DHT22;3136;48.788;9.772;2023-12-29T13:35:11;12.80;99.90
6206;DHT22;3136;48.788;9.772;2023-12-29T13:37:49;12.70;99.90
6206;DHT22;3136;48.788;9.772;2023-12-29T13:40:39;12.70;99.90
6206;DHT22;3136;48.788;9.772;2023-12-29T13:43:08;12.70;99.90
6206;DHT22;3136;48.788;9.772;2023-12-29T13:45:37;12.60;99.90
6206;DHT22;3136;48.788;9.772;2023-12-29T13:48:04;12.60;99.90
6206;DHT22;3136;48.788;9.772;2023-12-29T13:50:32;12.60;99.90
6206;DHT22;3136;48.788;9.772;2023-12-29T13:52:58;12.70;99.90
6206;DHT22;3136;48.788;9.772;2023-12-29T13:55:24;12.60;99.90
6206;DHT22;3136;48.788;9.772;2023-12-29T13:57:50;12.50;99.90
6206;DHT22;3136;48.788;9.772;2023-12-29T14:02:48;12.40;99.90
6206;DHT22;3136;48.788;9.772;2023-12-29T14:10:36;12.40;99.90
6206;DHT22;3136;48.788;9.772;2023-12-29T14:13:11;12.40;99.90
6206;DHT22;3136;48.788;9.772;2023-12-29T14:15:42;12.30;99.90
6206;DHT22;3136;48.788;9.772;2023-12-29T14:20:55;12.30;99.90
6206;DHT22;3136;48.788;9.772;2023-12-29T14:23:21;12.20;99.90
6206;DHT22;3136;48.788;9.772;2023-12-29T14:25:46;12.20;99.90
6206;DHT22;3136;48.788;9.772;2023-12-29T14:28:20;12.20;99.90
6206;DHT22;3136;48.788;9.772;2023-12-29T14:30:48;12.10;99.90
6206;DHT22;3136;48.788;9.772;2023-12-29T14:33:14;12.10;99.90
6206;DHT22;3136;48.788;9.772;2023-12-29T14:35:40;12.10;99.90
6206;DHT22;3136;48.788;9.772;2023-12-29T14:38:06;12.10;99.90
6206;DHT22;3136;48.788;9.772;2023-12-29T14:40:32;12.10;99.90
6206;DHT22;3136;48.788;9.772;2023-12-29T14:43:02;12.00;99.90
6206;DHT22;3136;48.788;9.772;2023-12-29T14:45:28;12.00;99.90
6206;DHT22;3136;48.788;9.772;2023-12-29T14:47:58;11.90;99.90
6206;DHT22;3136;48.788;9.772;2023-12-29T14:50:25;12.10;99.90
6206;DHT22;3136;48.788;9.772;2023-12-29T14:52:51;11.90;99.90
6206;DHT22;3136;48.788;9.772;2023-12-29T14:55:16;12.10;99.90
6206;DHT22;3136;48.788;9.772;2023-12-29T14:57:42;11.80;99.90
6206;DHT22;3136;48.788;9.772;2023-12-29T15:00:10;11.70;99.90
6206;DHT22;3136;48.788;9.772;2023-12-29T15:02:36;11.60;99.90
6206;DHT22;3136;48.788;9.772;2023-12-29T15:05:01;11.60;99.90
6206;DHT22;3136;48.788;9.772;2023-12-29T15:07:27;11.50;99.90
6206;DHT22;3136;48.788;9.772;2023-12-29T15:09:56;11.50;99.90
6206;DHT22;3136;48.788;9.772;2023-12-29T15:12:21;11.40;99.90
6206;DHT22;3136;48.788;9.772;2023-12-29T15:14:47;11.90;99.90
6206;DHT22;3136;48.788;9.772;2023-12-29T15:17:13;11.40;99.90
6206;DHT22;3136;48.788;9.772;2023-12-29T15:19:38;11.40;99.90
6206;DHT22;3136;48.788;9.772;2023-12-29T15:22:04;11.30;99.90
6206;DHT22;3136;48.788;9.772;2023-12-29T15:24:29;11.30;99.90
6206;DHT22;3136;48.788;9.772;2023-12-29T15:26:55;11.20;99.90
6206;DHT22;3136;48.788;9.772;2023-12-29T15:29:20;11.20;99.90
6206;DHT22;3136;48.788;9.772;2023-12-29T15:31:46;11.10;99.90
6206;DHT22;3136;48.788;9.772;2023-12-29T15:34:13;11.10;99.90
6206;DHT22;3136;48.788;9.772;2023-12-29T15:36:38;11.00;99.90
6206;DHT22;3136;48.788;9.772;2023-12-29T15:39:04;10.90;99.90
6206;DHT22;3136;48.788;9.772;2023-12-29T15:41:33;10.90;99.90
6206;DHT22;3136;48.788;9.772;2023-12-29T15:43:59;10.80;99.90
6206;DHT22;3136;48.788;9.772;2023-12-29T15:46:25;10.70;99.90
6206;DHT22;3136;48.788;9.772;2023-12-29T15:48:51;10.70;99.90
6206;DHT22;3136;48.788;9.772;2023-12-29T15:51:16;10.70;99.90
6206;DHT22;3136;48.788;9.772;2023-12-29T15:53:42;10.60;99.90
6206;DHT22;3136;48.788;9.772;2023-12-29T15:56:16;10.60;99.90
6206;DHT22;3136;48.788;9.772;2023-12-29T15:58:44;10.60;99.90
6206;DHT22;3136;48.788;9.772;2023-12-29T16:01:10;10.60;99.90
6206;DHT22;3136;48.788;9.772;2023-12-29T16:03:35;10.60;99.90
6206;DHT22;3136;48.788;9.772;2023-12-29T16:06:01;10.50;99.90
6206;DHT22;3136;48.788;9.772;2023-12-29T16:08:28;10.60;99.90
6206;DHT22;3136;48.788;9.772;2023-12-29T16:10:54;10.60;99.90
6206;DHT22;3136;48.788;9.772;2023-12-29T16:13:19;10.50;99.90
6206;DHT22;3136;48.788;9.772;2023-12-29T16:15:45;10.50;99.90
6206;DHT22;3136;48.788;9.772;2023-12-29T16:18:13;10.50;99.90
6206;DHT22;3136;48.788;9.772;2023-12-29T16:20:39;10.40;99.90
6206;DHT22;3136;48.788;9.772;2023-12-29T16:23:05;10.40;99.90
6206;DHT22;3136;48.788;9.772;2023-12-29T16:25:30;10.40;99.90
6206;DHT22;3136;48.788;9.772;2023-12-29T16:27:56;10.40;99.90
6206;DHT22;3136;48.788;9.772;2023-12-29T16:30:21;10.30;99.90
6206;DHT22;3136;48.788;9.772;2023-12-29T16:32:47;10.30;99.90
6206;DHT22;3136;48.788;9.772;2023-12-29T16:35:12;10.20;99.90